sensor_id;sensor_type;location;lat;lon;timestamp;P1;durP1;ratioP1;P2;durP2;ratioP2
78453;SDS011;67750;55.832;49.124;2023-12-20T00:00:04;0.10;;;0.10;;
78453;SDS011;67750;55.832;49.124;2023-12-20T00:02:34;0.30;;;0.13;;
78453;SDS011;67750;55.832;49.124;2023-12-20T00:05:04;0.10;;;0.10;;
78453;SDS011;67750;55.832;49.124;2023-12-20T00:07:34;0.37;;;0.20;;
78453;SDS011;67750;55.832;49.124;2023-12-20T00:10:04;0.65;;;0.10;;
78453;SDS011;67750;55.832;49.124;2023-12-20T00:12:34;0.30;;;0.10;;
78453;SDS011;67750;55.832;49.124;2023-12-20T00:15:04;0.50;;;0.30;;
78453;SDS011;67750;55.832;49.124;2023-12-20T00:17:34;0.42;;;0.20;;
78453;SDS011;67750;55.832;49.124;2023-12-20T00:20:03;1.55;;;0.23;;
78453;SDS011;67750;55.832;49.124;2023-12-20T00:22:33;0.50;;;0.30;;
78453;SDS011;67750;55.832;49.124;2023-12-20T00:25:03;0.78;;;0.40;;
78453;SDS011;67750;55.832;49.124;2023-12-20T00:27:33;0.57;;;0.25;;
78453;SDS011;67750;55.832;49.124;2023-12-20T00:30:02;1.45;;;0.25;;
78453;SDS011;67750;55.832;49.124;2023-12-20T00:32:34;0.50;;;0.20;;
78453;SDS011;67750;55.832;49.124;2023-12-20T00:35:04;0.40;;;0.20;;
78453;SDS011;67750;55.832;49.124;2023-12-20T00:37:33;0.50;;;0.20;;
78453;SDS011;67750;55.832;49.124;2023-12-20T00:40:03;0.53;;;0.23;;
78453;SDS011;67750;55.832;49.124;2023-12-20T00:42:33;0.23;;;0.13;;
78453;SDS011;67750;55.832;49.124;2023-12-20T00:45:03;0.60;;;0.20;;
78453;SDS011;67750;55.832;49.124;2023-12-20T00:47:33;0.15;;;0.15;;
78453;SDS011;67750;55.832;49.124;2023-12-20T00:50:03;0.20;;;0.13;;
78453;SDS011;67750;55.832;49.124;2023-12-20T00:52:33;0.35;;;0.20;;
78453;SDS011;67750;55.832;49.124;2023-12-20T00:55:03;0.20;;;0.17;;
78453;SDS011;67750;55.832;49.124;2023-12-20T00:57:33;0.57;;;0.30;;
78453;SDS011;67750;55.832;49.124;2023-12-20T01:00:03;0.60;;;0.37;;
78453;SDS011;67750;55.832;49.124;2023-12-20T01:02:35;0.70;;;0.40;;
78453;SDS011;67750;55.832;49.124;2023-12-20T01:05:05;0.68;;;0.47;;
78453;SDS011;67750;55.832;49.124;2023-12-20T01:07:36;0.42;;;0.30;;
78453;SDS011;67750;55.832;49.124;2023-12-20T01:10:05;0.75;;;0.40;;
78453;SDS011;67750;55.832;49.124;2023-12-20T01:12:35;0.90;;;0.80;;
78453;SDS011;67750;55.832;49.124;2023-12-20T01:15:05;0.93;;;0.42;;
78453;SDS011;67750;55.832;49.124;2023-12-20T01:17:35;1.07;;;0.47;;
78453;SDS011;67750;55.832;49.124;2023-12-20T01:20:05;0.50;;;0.30;;
78453;SDS011;67750;55.832;49.124;2023-12-20T01:22:34;0.55;;;0.40;;
78453;SDS011;67750;55.832;49.124;2023-12-20T01:25:04;1.00;;;0.50;;
78453;SDS011;67750;55.832;49.124;2023-12-20T01:27:34;0.80;;;0.50;;
78453;SDS011;67750;55.832;49.124;2023-12-20T01:30:04;1.10;;;0.53;;
78453;SDS011;67750;55.832;49.124;2023-12-20T01:32:33;0.88;;;0.40;;
78453;SDS011;67750;55.832;49.124;2023-12-20T01:35:03;0.60;;;0.33;;
78453;SDS011;67750;55.832;49.124;2023-12-20T01:37:33;1.00;;;0.55;;
78453;SDS011;67750;55.832;49.124;2023-12-20T01:40:03;1.20;;;0.60;;
78453;SDS011;67750;55.832;49.124;2023-12-20T01:42:33;0.72;;;0.40;;
78453;SDS011;67750;55.832;49.124;2023-12-20T01:45:03;1.82;;;0.50;;
78453;SDS011;67750;55.832;49.124;2023-12-20T01:47:33;1.20;;;0.60;;
78453;SDS011;67750;55.832;49.124;2023-12-20T01:50:03;2.47;;;0.68;;
78453;SDS011;67750;55.832;49.124;2023-12-20T01:55:03;1.30;;;0.70;;
78453;SDS011;67750;55.832;49.124;2023-12-20T01:57:35;1.40;;;0.68;;
78453;SDS011;67750;55.832;49.124;2023-12-20T02:00:05;2.47;;;0.62;;
78453;SDS011;67750;55.832;49.124;2023-12-20T02:02:58;1.30;;;0.70;;
78453;SDS011;67750;55.832;49.124;2023-12-20T02:06:04;0.95;;;0.53;;
78453;SDS011;67750;55.832;49.124;2023-12-20T02:08:00;1.25;;;0.60;;
78453;SDS011;67750;55.832;49.124;2023-12-20T02:10:30;1.10;;;0.60;;
78453;SDS011;67750;55.832;49.124;2023-12-20T02:12:59;1.65;;;0.60;;
78453;SDS011;67750;55.832;49.124;2023-12-20T02:15:29;1.95;;;0.70;;
78453;SDS011;67750;55.832;49.124;2023-12-20T02:17:59;1.25;;;0.57;;
78453;SDS011;67750;55.832;49.124;2023-12-20T02:20:30;1.62;;;0.60;;
78453;SDS011;67750;55.832;49.124;2023-12-20T02:23:00;0.50;;;0.35;;
78453;SDS011;67750;55.832;49.124;2023-12-20T02:25:29;1.10;;;0.78;;
78453;SDS011;67750;55.832;49.124;2023-12-20T02:27:59;1.25;;;0.70;;
78453;SDS011;67750;55.832;49.124;2023-12-20T02:30:29;1.32;;;0.80;;
78453;SDS011;67750;55.832;49.124;2023-12-20T02:32:59;1.10;;;0.68;;
78453;SDS011;67750;55.832;49.124;2023-12-20T02:35:29;1.10;;;0.60;;
78453;SDS011;67750;55.832;49.124;2023-12-20T02:37:58;1.40;;;0.62;;
78453;SDS011;67750;55.832;49.124;2023-12-20T02:40:28;1.32;;;0.70;;
78453;SDS011;67750;55.832;49.124;2023-12-20T02:42:57;3.17;;;0.70;;
78453;SDS011;67750;55.832;49.124;2023-12-20T02:45:27;1.10;;;0.70;;
78453;SDS011;67750;55.832;49.124;2023-12-20T02:47:57;2.47;;;0.90;;
78453;SDS011;67750;55.832;49.124;2023-12-20T02:50:26;0.62;;;0.40;;
78453;SDS011;67750;55.832;49.124;2023-12-20T02:52:56;1.82;;;0.80;;
78453;SDS011;67750;55.832;49.124;2023-12-20T02:55:25;1.25;;;0.70;;
78453;SDS011;67750;55.832;49.124;2023-12-20T02:57:55;1.75;;;0.60;;
78453;SDS011;67750;55.832;49.124;2023-12-20T03:00:25;1.65;;;0.60;;
78453;SDS011;67750;55.832;49.124;2023-12-20T03:02:54;0.80;;;0.50;;
78453;SDS011;67750;55.832;49.124;2023-12-20T03:05:24;1.10;;;0.60;;
78453;SDS011;67750;55.832;49.124;2023-12-20T03:07:53;1.40;;;0.80;;
78453;SDS011;67750;55.832;49.124;2023-12-20T03:10:23;1.82;;;0.78;;
78453;SDS011;67750;55.832;49.124;2023-12-20T03:12:52;1.72;;;0.88;;
78453;SDS011;67750;55.832;49.124;2023-12-20T03:15:22;1.25;;;0.70;;
78453;SDS011;67750;55.832;49.124;2023-12-20T03:17:51;4.22;;;0.80;;
78453;SDS011;67750;55.832;49.124;2023-12-20T03:20:21;2.17;;;0.80;;
78453;SDS011;67750;55.832;49.124;2023-12-20T03:22:50;1.55;;;0.70;;
78453;SDS011;67750;55.832;49.124;2023-12-20T03:25:20;1.70;;;0.90;;
78453;SDS011;67750;55.832;49.124;2023-12-20T03:27:50;3.02;;;1.00;;
78453;SDS011;67750;55.832;49.124;2023-12-20T03:30:19;3.05;;;0.80;;
78453;SDS011;67750;55.832;49.124;2023-12-20T03:32:49;1.55;;;0.80;;
78453;SDS011;67750;55.832;49.124;2023-12-20T03:35:18;1.98;;;0.62;;
78453;SDS011;67750;55.832;49.124;2023-12-20T03:37:48;5.37;;;0.93;;
78453;SDS011;67750;55.832;49.124;2023-12-20T03:40:18;1.98;;;0.70;;
78453;SDS011;67750;55.832;49.124;2023-12-20T03:42:49;1.22;;;0.70;;
78453;SDS011;67750;55.832;49.124;2023-12-20T03:45:20;1.30;;;0.70;;
78453;SDS011;67750;55.832;49.124;2023-12-20T03:47:50;4.95;;;1.87;;
78453;SDS011;67750;55.832;49.124;2023-12-20T03:50:39;2.55;;;0.80;;
78453;SDS011;67750;55.832;49.124;2023-12-20T03:53:09;1.27;;;0.60;;
78453;SDS011;67750;55.832;49.124;2023-12-20T03:55:39;1.32;;;0.62;;
78453;SDS011;67750;55.832;49.124;2023-12-20T03:58:08;1.62;;;0.45;;
78453;SDS011;67750;55.832;49.124;2023-12-20T04:00:38;3.15;;;0.80;;
78453;SDS011;67750;55.832;49.124;2023-12-20T04:03:07;2.12;;;0.90;;
78453;SDS011;67750;55.832;49.124;2023-12-20T04:05:39;2.33;;;0.80;;
78453;SDS011;67750;55.832;49.124;2023-12-20T04:08:09;1.40;;;0.80;;
78453;SDS011;67750;55.832;49.124;2023-12-20T04:10:39;3.08;;;0.95;;
78453;SDS011;67750;55.832;49.124;2023-12-20T04:13:08;1.92;;;0.85;;
78453;SDS011;67750;55.832;49.124;2023-12-20T04:15:38;2.02;;;0.80;;
78453;SDS011;67750;55.832;49.124;2023-12-20T04:18:08;1.35;;;0.72;;
78453;SDS011;67750;55.832;49.124;2023-12-20T04:20:37;2.30;;;0.98;;
78453;SDS011;67750;55.832;49.124;2023-12-20T04:23:07;1.72;;;1.10;;
78453;SDS011;67750;55.832;49.124;2023-12-20T04:25:36;2.02;;;1.07;;
78453;SDS011;67750;55.832;49.124;2023-12-20T04:28:06;3.52;;;1.05;;
78453;SDS011;67750;55.832;49.124;2023-12-20T04:30:35;6.10;;;1.47;;
78453;SDS011;67750;55.832;49.124;2023-12-20T04:33:05;4.22;;;1.10;;
78453;SDS011;67750;55.832;49.124;2023-12-20T04:35:34;2.35;;;0.90;;
78453;SDS011;67750;55.832;49.124;2023-12-20T04:38:04;2.42;;;1.10;;
78453;SDS011;67750;55.832;49.124;2023-12-20T04:40:34;1.77;;;0.90;;
78453;SDS011;67750;55.832;49.124;2023-12-20T04:43:03;2.85;;;1.12;;
78453;SDS011;67750;55.832;49.124;2023-12-20T04:45:33;5.15;;;1.50;;
78453;SDS011;67750;55.832;49.124;2023-12-20T04:48:02;3.10;;;1.10;;
78453;SDS011;67750;55.832;49.124;2023-12-20T04:50:32;2.87;;;1.02;;
78453;SDS011;67750;55.832;49.124;2023-12-20T04:53:02;4.17;;;1.02;;
78453;SDS011;67750;55.832;49.124;2023-12-20T04:55:31;4.00;;;1.02;;
78453;SDS011;67750;55.832;49.124;2023-12-20T04:58:01;2.12;;;1.05;;
78453;SDS011;67750;55.832;49.124;2023-12-20T05:00:30;2.95;;;1.12;;
78453;SDS011;67750;55.832;49.124;2023-12-20T05:03:00;1.80;;;0.98;;
78453;SDS011;67750;55.832;49.124;2023-12-20T05:05:30;2.05;;;1.10;;
78453;SDS011;67750;55.832;49.124;2023-12-20T05:07:59;2.30;;;0.90;;
78453;SDS011;67750;55.832;49.124;2023-12-20T05:10:31;3.98;;;0.98;;
78453;SDS011;67750;55.832;49.124;2023-12-20T05:13:03;2.45;;;1.00;;
78453;SDS011;67750;55.832;49.124;2023-12-20T05:15:33;3.25;;;1.42;;
78453;SDS011;67750;55.832;49.124;2023-12-20T05:18:02;2.33;;;1.27;;
78453;SDS011;67750;55.832;49.124;2023-12-20T05:20:32;4.03;;;1.20;;
78453;SDS011;67750;55.832;49.124;2023-12-20T05:23:01;2.92;;;1.10;;
78453;SDS011;67750;55.832;49.124;2023-12-20T05:25:31;4.50;;;1.12;;
78453;SDS011;67750;55.832;49.124;2023-12-20T05:28:00;3.80;;;1.17;;
78453;SDS011;67750;55.832;49.124;2023-12-20T05:30:30;1.85;;;0.93;;
78453;SDS011;67750;55.832;49.124;2023-12-20T05:32:59;1.77;;;1.02;;
78453;SDS011;67750;55.832;49.124;2023-12-20T05:35:29;3.42;;;2.15;;
78453;SDS011;67750;55.832;49.124;2023-12-20T05:37:59;2.60;;;1.50;;
78453;SDS011;67750;55.832;49.124;2023-12-20T05:40:28;3.35;;;0.95;;
78453;SDS011;67750;55.832;49.124;2023-12-20T05:42:58;7.35;;;1.90;;
78453;SDS011;67750;55.832;49.124;2023-12-20T05:45:27;5.12;;;1.57;;
78453;SDS011;67750;55.832;49.124;2023-12-20T05:54:03;2.72;;;1.30;;
78453;SDS011;67750;55.832;49.124;2023-12-20T05:56:33;2.80;;;1.37;;
78453;SDS011;67750;55.832;49.124;2023-12-20T05:59:02;3.10;;;1.65;;
78453;SDS011;67750;55.832;49.124;2023-12-20T06:01:32;5.45;;;1.60;;
78453;SDS011;67750;55.832;49.124;2023-12-20T06:04:01;3.60;;;1.50;;
78453;SDS011;67750;55.832;49.124;2023-12-20T06:06:32;2.27;;;1.60;;
78453;SDS011;67750;55.832;49.124;2023-12-20T06:09:02;2.47;;;1.57;;
78453;SDS011;67750;55.832;49.124;2023-12-20T06:11:32;3.22;;;1.70;;
78453;SDS011;67750;55.832;49.124;2023-12-20T06:14:01;3.70;;;1.80;;
78453;SDS011;67750;55.832;49.124;2023-12-20T06:16:31;3.83;;;1.70;;
78453;SDS011;67750;55.832;49.124;2023-12-20T06:19:00;3.45;;;1.90;;
78453;SDS011;67750;55.832;49.124;2023-12-20T06:21:30;4.40;;;1.70;;
78453;SDS011;67750;55.832;49.124;2023-12-20T06:23:59;3.08;;;1.98;;
78453;SDS011;67750;55.832;49.124;2023-12-20T06:26:29;4.87;;;2.05;;
78453;SDS011;67750;55.832;49.124;2023-12-20T06:28:58;4.62;;;2.12;;
78453;SDS011;67750;55.832;49.124;2023-12-20T06:31:28;4.15;;;1.90;;
78453;SDS011;67750;55.832;49.124;2023-12-20T06:33:59;3.72;;;2.20;;
78453;SDS011;67750;55.832;49.124;2023-12-20T06:36:30;3.55;;;1.80;;
78453;SDS011;67750;55.832;49.124;2023-12-20T06:38:59;3.33;;;1.90;;
78453;SDS011;67750;55.832;49.124;2023-12-20T06:41:29;5.85;;;2.30;;
78453;SDS011;67750;55.832;49.124;2023-12-20T06:43:58;4.35;;;1.87;;
78453;SDS011;67750;55.832;49.124;2023-12-20T06:46:28;2.70;;;1.77;;
78453;SDS011;67750;55.832;49.124;2023-12-20T06:48:57;3.40;;;1.85;;
78453;SDS011;67750;55.832;49.124;2023-12-20T06:51:27;7.05;;;2.20;;
78453;SDS011;67750;55.832;49.124;2023-12-20T06:53:57;3.37;;;1.85;;
78453;SDS011;67750;55.832;49.124;2023-12-20T06:56:28;5.80;;;2.20;;
78453;SDS011;67750;55.832;49.124;2023-12-20T06:58:58;4.40;;;2.05;;
78453;SDS011;67750;55.832;49.124;2023-12-20T07:01:28;5.67;;;1.98;;
78453;SDS011;67750;55.832;49.124;2023-12-20T07:03:58;3.00;;;1.70;;
78453;SDS011;67750;55.832;49.124;2023-12-20T07:06:27;2.90;;;1.77;;
78453;SDS011;67750;55.832;49.124;2023-12-20T07:08:57;3.55;;;1.80;;
78453;SDS011;67750;55.832;49.124;2023-12-20T07:11:26;3.80;;;2.17;;
78453;SDS011;67750;55.832;49.124;2023-12-20T07:13:56;4.25;;;1.80;;
78453;SDS011;67750;55.832;49.124;2023-12-20T07:16:26;7.15;;;2.10;;
78453;SDS011;67750;55.832;49.124;2023-12-20T07:18:56;8.70;;;2.58;;
78453;SDS011;67750;55.832;49.124;2023-12-20T07:21:25;3.85;;;2.25;;
78453;SDS011;67750;55.832;49.124;2023-12-20T07:23:55;4.25;;;2.15;;
78453;SDS011;67750;55.832;49.124;2023-12-20T07:26:24;2.98;;;1.95;;
78453;SDS011;67750;55.832;49.124;2023-12-20T07:28:54;5.78;;;2.50;;
78453;SDS011;67750;55.832;49.124;2023-12-20T07:31:25;5.03;;;2.98;;
78453;SDS011;67750;55.832;49.124;2023-12-20T07:33:55;3.55;;;1.85;;
78453;SDS011;67750;55.832;49.124;2023-12-20T07:36:24;3.85;;;2.12;;
78453;SDS011;67750;55.832;49.124;2023-12-20T07:38:54;4.35;;;2.00;;
78453;SDS011;67750;55.832;49.124;2023-12-20T07:41:23;3.77;;;1.77;;
78453;SDS011;67750;55.832;49.124;2023-12-20T07:43:53;3.83;;;1.80;;
78453;SDS011;67750;55.832;49.124;2023-12-20T07:46:23;3.83;;;2.00;;
78453;SDS011;67750;55.832;49.124;2023-12-20T07:48:53;4.15;;;1.90;;
78453;SDS011;67750;55.832;49.124;2023-12-20T07:51:22;2.75;;;1.82;;
78453;SDS011;67750;55.832;49.124;2023-12-20T07:53:52;3.92;;;1.90;;
78453;SDS011;67750;55.832;49.124;2023-12-20T07:56:21;4.30;;;1.82;;
78453;SDS011;67750;55.832;49.124;2023-12-20T07:58:51;3.00;;;1.87;;
78453;SDS011;67750;55.832;49.124;2023-12-20T08:01:20;4.17;;;1.87;;
78453;SDS011;67750;55.832;49.124;2023-12-20T08:03:50;3.90;;;1.70;;
78453;SDS011;67750;55.832;49.124;2023-12-20T08:06:19;4.10;;;1.90;;
78453;SDS011;67750;55.832;49.124;2023-12-20T08:08:49;2.85;;;1.57;;
78453;SDS011;67750;55.832;49.124;2023-12-20T08:11:19;5.55;;;1.60;;
78453;SDS011;67750;55.832;49.124;2023-12-20T08:13:48;6.45;;;2.20;;
78453;SDS011;67750;55.832;49.124;2023-12-20T08:16:18;2.98;;;1.62;;
78453;SDS011;67750;55.832;49.124;2023-12-20T08:18:47;5.40;;;1.90;;
78453;SDS011;67750;55.832;49.124;2023-12-20T08:21:17;5.60;;;1.75;;
78453;SDS011;67750;55.832;49.124;2023-12-20T08:23:48;3.05;;;1.82;;
78453;SDS011;67750;55.832;49.124;2023-12-20T08:29:07;3.00;;;1.42;;
78453;SDS011;67750;55.832;49.124;2023-12-20T08:31:36;2.80;;;1.77;;
78453;SDS011;67750;55.832;49.124;2023-12-20T08:34:06;2.33;;;1.47;;
78453;SDS011;67750;55.832;49.124;2023-12-20T08:36:35;3.77;;;1.92;;
78453;SDS011;67750;55.832;49.124;2023-12-20T08:39:05;3.52;;;2.10;;
78453;SDS011;67750;55.832;49.124;2023-12-20T08:41:35;3.62;;;1.92;;
78453;SDS011;67750;55.832;49.124;2023-12-20T08:44:05;3.22;;;1.92;;
78453;SDS011;67750;55.832;49.124;2023-12-20T08:46:34;5.05;;;1.92;;
78453;SDS011;67750;55.832;49.124;2023-12-20T08:49:04;3.50;;;1.85;;
78453;SDS011;67750;55.832;49.124;2023-12-20T08:51:35;4.62;;;1.95;;
78453;SDS011;67750;55.832;49.124;2023-12-20T08:54:06;4.22;;;2.42;;
78453;SDS011;67750;55.832;49.124;2023-12-20T08:56:36;3.65;;;2.20;;
78453;SDS011;67750;55.832;49.124;2023-12-20T08:59:05;6.95;;;2.10;;
78453;SDS011;67750;55.832;49.124;2023-12-20T09:01:36;8.50;;;2.40;;
78453;SDS011;67750;55.832;49.124;2023-12-20T09:04:05;6.12;;;2.70;;
78453;SDS011;67750;55.832;49.124;2023-12-20T09:06:35;3.90;;;2.52;;
78453;SDS011;67750;55.832;49.124;2023-12-20T09:09:04;4.90;;;2.00;;
78453;SDS011;67750;55.832;49.124;2023-12-20T09:11:36;6.47;;;2.50;;
78453;SDS011;67750;55.832;49.124;2023-12-20T09:14:05;6.42;;;2.60;;
78453;SDS011;67750;55.832;49.124;2023-12-20T09:16:35;4.05;;;2.10;;
78453;SDS011;67750;55.832;49.124;2023-12-20T09:19:04;3.90;;;2.30;;
78453;SDS011;67750;55.832;49.124;2023-12-20T09:21:34;6.20;;;2.25;;
78453;SDS011;67750;55.832;49.124;2023-12-20T09:26:53;4.35;;;2.08;;
78453;SDS011;67750;55.832;49.124;2023-12-20T09:29:22;8.85;;;2.77;;
78453;SDS011;67750;55.832;49.124;2023-12-20T09:31:52;3.58;;;2.00;;
78453;SDS011;67750;55.832;49.124;2023-12-20T09:34:22;4.50;;;2.12;;
78453;SDS011;67750;55.832;49.124;2023-12-20T09:36:52;5.40;;;1.95;;
78453;SDS011;67750;55.832;49.124;2023-12-20T09:39:22;3.52;;;1.80;;
78453;SDS011;67750;55.832;49.124;2023-12-20T09:44:41;3.50;;;2.25;;
78453;SDS011;67750;55.832;49.124;2023-12-20T09:47:11;4.22;;;1.82;;
78453;SDS011;67750;55.832;49.124;2023-12-20T09:49:41;4.25;;;1.98;;
78453;SDS011;67750;55.832;49.124;2023-12-20T09:52:12;3.20;;;1.45;;
78453;SDS011;67750;55.832;49.124;2023-12-20T09:54:42;4.45;;;1.50;;
78453;SDS011;67750;55.832;49.124;2023-12-20T09:57:13;3.25;;;1.62;;
78453;SDS011;67750;55.832;49.124;2023-12-20T09:59:42;3.08;;;1.57;;
78453;SDS011;67750;55.832;49.124;2023-12-20T10:02:12;2.70;;;1.50;;
78453;SDS011;67750;55.832;49.124;2023-12-20T10:04:44;2.92;;;1.67;;
78453;SDS011;67750;55.832;49.124;2023-12-20T10:07:13;4.30;;;1.40;;
78453;SDS011;67750;55.832;49.124;2023-12-20T10:09:44;4.00;;;1.90;;
78453;SDS011;67750;55.832;49.124;2023-12-20T10:12:14;4.47;;;2.37;;
78453;SDS011;67750;55.832;49.124;2023-12-20T10:14:43;3.52;;;2.00;;
78453;SDS011;67750;55.832;49.124;2023-12-20T10:17:13;4.35;;;2.17;;
78453;SDS011;67750;55.832;49.124;2023-12-20T10:19:42;3.75;;;2.15;;
78453;SDS011;67750;55.832;49.124;2023-12-20T10:22:12;4.58;;;2.00;;
78453;SDS011;67750;55.832;49.124;2023-12-20T10:24:42;3.75;;;2.05;;
78453;SDS011;67750;55.832;49.124;2023-12-20T10:27:11;3.30;;;1.95;;
78453;SDS011;67750;55.832;49.124;2023-12-20T10:29:41;3.67;;;2.17;;
78453;SDS011;67750;55.832;49.124;2023-12-20T10:35:00;3.60;;;1.90;;
78453;SDS011;67750;55.832;49.124;2023-12-20T10:37:31;3.35;;;1.90;;
78453;SDS011;67750;55.832;49.124;2023-12-20T10:40:03;3.87;;;2.08;;
78453;SDS011;67750;55.832;49.124;2023-12-20T10:42:33;5.00;;;2.45;;
78453;SDS011;67750;55.832;49.124;2023-12-20T10:45:03;4.90;;;2.65;;
78453;SDS011;67750;55.832;49.124;2023-12-20T10:47:34;4.10;;;2.45;;
78453;SDS011;67750;55.832;49.124;2023-12-20T10:50:05;4.60;;;2.95;;
78453;SDS011;67750;55.832;49.124;2023-12-20T10:52:35;7.05;;;2.77;;
78453;SDS011;67750;55.832;49.124;2023-12-20T10:55:06;5.45;;;2.85;;
78453;SDS011;67750;55.832;49.124;2023-12-20T10:57:36;5.00;;;2.92;;
78453;SDS011;67750;55.832;49.124;2023-12-20T11:00:06;8.45;;;3.47;;
78453;SDS011;67750;55.832;49.124;2023-12-20T11:02:39;7.90;;;2.45;;
78453;SDS011;67750;55.832;49.124;2023-12-20T11:08:01;6.08;;;2.20;;
78453;SDS011;67750;55.832;49.124;2023-12-20T11:13:21;4.60;;;2.45;;
78453;SDS011;67750;55.832;49.124;2023-12-20T11:15:51;4.10;;;2.12;;
78453;SDS011;67750;55.832;49.124;2023-12-20T11:18:20;4.92;;;2.35;;
78453;SDS011;67750;55.832;49.124;2023-12-20T11:20:51;5.78;;;3.27;;
78453;SDS011;67750;55.832;49.124;2023-12-20T11:23:22;3.60;;;2.08;;
78453;SDS011;67750;55.832;49.124;2023-12-20T11:25:52;3.90;;;2.50;;
78453;SDS011;67750;55.832;49.124;2023-12-20T11:28:22;3.45;;;1.77;;
78453;SDS011;67750;55.832;49.124;2023-12-20T11:33:42;3.90;;;2.55;;
78453;SDS011;67750;55.832;49.124;2023-12-20T11:36:13;4.00;;;2.05;;
78453;SDS011;67750;55.832;49.124;2023-12-20T11:41:34;5.65;;;1.92;;
78453;SDS011;67750;55.832;49.124;2023-12-20T11:44:05;4.80;;;1.90;;
78453;SDS011;67750;55.832;49.124;2023-12-20T11:46:35;4.03;;;2.02;;
78453;SDS011;67750;55.832;49.124;2023-12-20T11:49:04;5.95;;;2.85;;
78453;SDS011;67750;55.832;49.124;2023-12-20T11:51:34;8.55;;;2.90;;
78453;SDS011;67750;55.832;49.124;2023-12-20T11:54:03;7.55;;;3.40;;
78453;SDS011;67750;55.832;49.124;2023-12-20T11:56:33;6.17;;;2.95;;
78453;SDS011;67750;55.832;49.124;2023-12-20T11:59:02;4.45;;;2.33;;
78453;SDS011;67750;55.832;49.124;2023-12-20T12:01:32;8.53;;;3.27;;
78453;SDS011;67750;55.832;49.124;2023-12-20T12:04:03;4.30;;;2.12;;
78453;SDS011;67750;55.832;49.124;2023-12-20T12:06:33;3.75;;;2.30;;
78453;SDS011;67750;55.832;49.124;2023-12-20T12:09:03;4.95;;;2.55;;
78453;SDS011;67750;55.832;49.124;2023-12-20T12:11:32;5.33;;;2.30;;
78453;SDS011;67750;55.832;49.124;2023-12-20T12:14:02;4.90;;;2.02;;
78453;SDS011;67750;55.832;49.124;2023-12-20T12:16:31;4.08;;;1.87;;
78453;SDS011;67750;55.832;49.124;2023-12-20T12:19:01;4.05;;;1.90;;
78453;SDS011;67750;55.832;49.124;2023-12-20T12:21:31;5.30;;;2.90;;
78453;SDS011;67750;55.832;49.124;2023-12-20T12:26:50;3.98;;;2.20;;
78453;SDS011;67750;55.832;49.124;2023-12-20T12:29:20;4.75;;;2.33;;
78453;SDS011;67750;55.832;49.124;2023-12-20T12:31:51;3.98;;;2.55;;
78453;SDS011;67750;55.832;49.124;2023-12-20T12:34:21;6.75;;;2.40;;
78453;SDS011;67750;55.832;49.124;2023-12-20T12:36:50;6.05;;;2.33;;
78453;SDS011;67750;55.832;49.124;2023-12-20T12:39:20;3.77;;;2.10;;
78453;SDS011;67750;55.832;49.124;2023-12-20T12:41:49;6.67;;;2.37;;
78453;SDS011;67750;55.832;49.124;2023-12-20T12:44:19;4.42;;;2.25;;
78453;SDS011;67750;55.832;49.124;2023-12-20T12:46:50;4.15;;;2.35;;
78453;SDS011;67750;55.832;49.124;2023-12-20T12:49:21;9.45;;;3.27;;
78453;SDS011;67750;55.832;49.124;2023-12-20T12:51:51;6.85;;;3.27;;
78453;SDS011;67750;55.832;49.124;2023-12-20T12:54:21;15.30;;;3.50;;
78453;SDS011;67750;55.832;49.124;2023-12-20T12:56:50;6.35;;;3.12;;
78453;SDS011;67750;55.832;49.124;2023-12-20T12:59:20;5.72;;;2.77;;
78453;SDS011;67750;55.832;49.124;2023-12-20T13:01:49;6.30;;;2.92;;
78453;SDS011;67750;55.832;49.124;2023-12-20T13:04:20;6.47;;;3.33;;
78453;SDS011;67750;55.832;49.124;2023-12-20T13:06:49;7.70;;;3.40;;
78453;SDS011;67750;55.832;49.124;2023-12-20T13:09:19;9.93;;;3.65;;
78453;SDS011;67750;55.832;49.124;2023-12-20T13:11:48;9.93;;;3.87;;
78453;SDS011;67750;55.832;49.124;2023-12-20T13:14:18;7.40;;;3.40;;
78453;SDS011;67750;55.832;49.124;2023-12-20T13:16:47;7.58;;;3.37;;
78453;SDS011;67750;55.832;49.124;2023-12-20T13:19:17;9.08;;;3.22;;
78453;SDS011;67750;55.832;49.124;2023-12-20T13:21:47;8.18;;;3.67;;
78453;SDS011;67750;55.832;49.124;2023-12-20T13:24:17;7.58;;;3.67;;
78453;SDS011;67750;55.832;49.124;2023-12-20T13:26:47;8.05;;;2.55;;
78453;SDS011;67750;55.832;49.124;2023-12-20T13:29:16;6.90;;;2.85;;
78453;SDS011;67750;55.832;49.124;2023-12-20T13:31:46;3.92;;;1.92;;
78453;SDS011;67750;55.832;49.124;2023-12-20T13:34:16;7.08;;;3.37;;
78453;SDS011;67750;55.832;49.124;2023-12-20T13:36:46;8.35;;;3.45;;
78453;SDS011;67750;55.832;49.124;2023-12-20T13:39:17;6.55;;;2.95;;
78453;SDS011;67750;55.832;49.124;2023-12-20T13:41:48;6.17;;;3.30;;
78453;SDS011;67750;55.832;49.124;2023-12-20T13:44:17;6.85;;;2.83;;
78453;SDS011;67750;55.832;49.124;2023-12-20T13:46:47;6.90;;;3.08;;
78453;SDS011;67750;55.832;49.124;2023-12-20T13:49:17;6.80;;;2.87;;
78453;SDS011;67750;55.832;49.124;2023-12-20T13:51:46;4.92;;;2.55;;
78453;SDS011;67750;55.832;49.124;2023-12-20T13:54:16;5.47;;;3.50;;
78453;SDS011;67750;55.832;49.124;2023-12-20T13:56:47;5.62;;;3.58;;
78453;SDS011;67750;55.832;49.124;2023-12-20T13:59:16;7.33;;;3.47;;
78453;SDS011;67750;55.832;49.124;2023-12-20T14:01:46;6.53;;;3.17;;
78453;SDS011;67750;55.832;49.124;2023-12-20T14:04:17;5.00;;;2.70;;
78453;SDS011;67750;55.832;49.124;2023-12-20T14:06:46;8.03;;;3.52;;
78453;SDS011;67750;55.832;49.124;2023-12-20T14:09:16;6.83;;;2.77;;
78453;SDS011;67750;55.832;49.124;2023-12-20T14:11:45;6.05;;;3.00;;
78453;SDS011;67750;55.832;49.124;2023-12-20T14:14:15;6.60;;;3.50;;
78453;SDS011;67750;55.832;49.124;2023-12-20T14:16:44;4.55;;;2.70;;
78453;SDS011;67750;55.832;49.124;2023-12-20T14:19:14;6.58;;;3.40;;
78453;SDS011;67750;55.832;49.124;2023-12-20T14:21:44;5.90;;;3.12;;
78453;SDS011;67750;55.832;49.124;2023-12-20T14:24:17;7.15;;;3.08;;
78453;SDS011;67750;55.832;49.124;2023-12-20T14:29:40;6.58;;;3.47;;
78453;SDS011;67750;55.832;49.124;2023-12-20T14:32:10;8.93;;;4.80;;
78453;SDS011;67750;55.832;49.124;2023-12-20T14:34:41;17.90;;;7.58;;
78453;SDS011;67750;55.832;49.124;2023-12-20T14:37:11;20.70;;;7.67;;
78453;SDS011;67750;55.832;49.124;2023-12-20T14:39:41;9.28;;;4.47;;
78453;SDS011;67750;55.832;49.124;2023-12-20T14:42:10;12.00;;;6.20;;
78453;SDS011;67750;55.832;49.124;2023-12-20T14:44:41;7.55;;;3.95;;
78453;SDS011;67750;55.832;49.124;2023-12-20T14:47:10;9.35;;;4.15;;
78453;SDS011;67750;55.832;49.124;2023-12-20T14:49:41;4.58;;;2.83;;
78453;SDS011;67750;55.832;49.124;2023-12-20T14:52:11;5.95;;;2.85;;
78453;SDS011;67750;55.832;49.124;2023-12-20T14:54:40;5.95;;;3.15;;
78453;SDS011;67750;55.832;49.124;2023-12-20T14:57:10;5.20;;;3.12;;
78453;SDS011;67750;55.832;49.124;2023-12-20T14:59:40;5.55;;;3.10;;
78453;SDS011;67750;55.832;49.124;2023-12-20T15:02:10;7.35;;;3.35;;
78453;SDS011;67750;55.832;49.124;2023-12-20T15:04:40;5.10;;;3.25;;
78453;SDS011;67750;55.832;49.124;2023-12-20T15:07:09;6.60;;;3.40;;
78453;SDS011;67750;55.832;49.124;2023-12-20T15:09:39;4.55;;;2.98;;
78453;SDS011;67750;55.832;49.124;2023-12-20T15:12:10;6.83;;;3.37;;
78453;SDS011;67750;55.832;49.124;2023-12-20T15:14:39;7.85;;;3.50;;
78453;SDS011;67750;55.832;49.124;2023-12-20T15:17:09;6.47;;;3.10;;
78453;SDS011;67750;55.832;49.124;2023-12-20T15:19:39;5.42;;;2.90;;
78453;SDS011;67750;55.832;49.124;2023-12-20T15:22:09;5.83;;;3.15;;
78453;SDS011;67750;55.832;49.124;2023-12-20T15:24:39;6.55;;;3.10;;